Time;durP1;ratioP1;P1;durP2;ratioP2;P2;SDS_P1;SDS_P2;PMS_P1;PMS_P2;Temp;Humidity;BMP_temperature;BMP_pressure;BME280_temperature;BME280_humidity;BME280_pressure;Samples;Min_cycle;Max_cycle;Signal;HPM_P1;HPM_P2
2023/02/25 00:01:21;;;;;;;3.40;1.13;;;;;;;;;;5012450;28;20158;-63
2023/02/25 00:03:47;;;;;;;3.60;1.33;;;;;;;;;;5012564;28;20197;-62
2023/02/25 00:06:14;;;;;;;3.15;1.45;;;;;;;;;;5012207;28;20227;-63
2023/02/25 00:08:43;;;;;;;2.03;1.25;;;;;;;;;;5012194;28;20325;-63
2023/02/25 00:11:09;;;;;;;5.30;1.60;;;;;;;;;;5012276;28;20179;-63
2023/02/25 00:13:35;;;;;;;3.45;1.50;;;;;;;;;;5023271;28;20200;-62
2023/02/25 00:16:04;;;;;;;4.50;1.55;;;;;;;;;;5035793;28;20158;-63
2023/02/25 00:18:31;;;;;;;4.28;1.58;;;;;;;;;;5036629;28;20227;-63
2023/02/25 00:20:57;;;;;;;2.88;1.33;;;;;;;;;;5029605;28;20190;-62
2023/02/25 00:23:23;;;;;;;3.45;1.40;;;;;;;;;;5029117;28;20203;-63
2023/02/25 00:25:49;;;;;;;3.13;1.45;;;;;;;;;;5027342;28;20174;-63
2023/02/25 00:28:15;;;;;;;2.13;1.15;;;;;;;;;;5026853;28;20198;-63
2023/02/25 00:30:41;;;;;;;1.92;1.13;;;;;;;;;;5021845;28;20174;-61
2023/02/25 00:33:09;;;;;;;0.90;0.73;;;;;;;;;;5018938;28;20223;-61
2023/02/25 00:35:38;;;;;;;2.00;1.00;;;;;;;;;;5015686;28;20174;-62
2023/02/25 00:38:06;;;;;;;2.70;0.95;;;;;;;;;;5016011;28;20185;-62
2023/02/25 00:40:32;;;;;;;1.88;1.23;;;;;;;;;;5015436;28;20194;-60
2023/02/25 00:42:58;;;;;;;1.60;0.88;;;;;;;;;;5015750;28;20560;-62
2023/02/25 00:45:24;;;;;;;1.63;1.17;;;;;;;;;;5015225;28;20197;-63
2023/02/25 00:47:50;;;;;;;2.50;0.70;;;;;;;;;;5014870;28;20166;-62
2023/02/25 00:50:16;;;;;;;1.52;0.80;;;;;;;;;;5014896;28;20254;-63
2023/02/25 00:52:42;;;;;;;1.00;0.80;;;;;;;;;;5015168;28;20166;-62
2023/02/25 00:55:08;;;;;;;3.42;0.80;;;;;;;;;;5015117;28;20177;-64
2023/02/25 00:57:34;;;;;;;2.42;0.70;;;;;;;;;;5016039;28;20178;-63
2023/02/25 01:00:00;;;;;;;2.55;1.15;;;;;;;;;;5018213;28;20213;-62
2023/02/25 01:02:26;;;;;;;0.93;0.60;;;;;;;;;;5018586;28;20162;-63
2023/02/25 01:04:52;;;;;;;1.15;0.43;;;;;;;;;;5017199;28;20261;-63
2023/02/25 01:07:20;;;;;;;2.88;0.60;;;;;;;;;;5016589;28;20177;-64
2023/02/25 01:09:46;;;;;;;1.15;0.50;;;;;;;;;;5016531;28;20174;-63
2023/02/25 01:12:12;;;;;;;1.70;0.65;;;;;;;;;;5016422;28;20169;-63
2023/02/25 01:14:38;;;;;;;1.38;0.60;;;;;;;;;;5015713;28;20220;-62
2023/02/25 01:17:04;;;;;;;3.70;0.77;;;;;;;;;;5014900;28;20174;-63
2023/02/25 01:19:30;;;;;;;1.63;0.50;;;;;;;;;;5014689;28;20197;-63
2023/02/25 01:21:58;;;;;;;4.47;0.65;;;;;;;;;;5014488;28;20558;-63
2023/02/25 01:24:28;;;;;;;3.95;0.60;;;;;;;;;;5014671;28;20163;-63
2023/02/25 01:26:55;;;;;;;2.33;0.70;;;;;;;;;;5014454;28;20215;-63
2023/02/25 01:29:23;;;;;;;1.42;0.55;;;;;;;;;;5014700;28;20201;-63
2023/02/25 01:31:51;;;;;;;2.30;0.65;;;;;;;;;;5014666;28;20170;-63
2023/02/25 01:34:17;;;;;;;1.58;0.68;;;;;;;;;;5014579;28;20170;-63
2023/02/25 01:36:44;;;;;;;0.60;0.60;;;;;;;;;;5014512;28;20257;-63
2023/02/25 01:39:11;;;;;;;2.22;0.52;;;;;;;;;;5014508;28;20246;-63
2023/02/25 01:41:37;;;;;;;1.83;0.60;;;;;;;;;;5013496;28;20212;-62
2023/02/25 01:44:03;;;;;;;2.65;0.70;;;;;;;;;;5014418;28;20190;-62
2023/02/25 01:46:29;;;;;;;3.30;0.82;;;;;;;;;;5014285;28;20241;-61
2023/02/25 01:48:55;;;;;;;3.28;0.60;;;;;;;;;;5014435;28;20238;-63
2023/02/25 01:51:25;;;;;;;2.58;0.50;;;;;;;;;;5014202;28;20173;-63
2023/02/25 01:53:52;;;;;;;2.50;0.60;;;;;;;;;;5014483;28;20167;-62
2023/02/25 01:56:19;;;;;;;1.10;0.60;;;;;;;;;;5014284;28;20171;-62
2023/02/25 01:58:48;;;;;;;0.60;0.30;;;;;;;;;;5014473;28;20185;-63
2023/02/25 02:01:15;;;;;;;2.05;0.50;;;;;;;;;;5014169;28;20186;-63
2023/02/25 02:03:42;;;;;;;1.10;0.70;;;;;;;;;;5014002;28;20182;-63
2023/02/25 02:06:14;;;;;;;0.63;0.50;;;;;;;;;;5013119;28;20174;-63
2023/02/25 02:08:41;;;;;;;1.13;0.40;;;;;;;;;;5013696;28;20670;-64
2023/02/25 02:11:07;;;;;;;4.65;0.85;;;;;;;;;;5013753;28;20167;-63
2023/02/25 02:13:35;;;;;;;1.10;0.75;;;;;;;;;;5013834;28;20174;-63
2023/02/25 02:16:07;;;;;;;0.80;0.60;;;;;;;;;;5013462;28;20235;-62
2023/02/25 02:18:34;;;;;;;1.05;0.40;;;;;;;;;;5014267;28;20205;-63
2023/02/25 02:21:03;;;;;;;1.45;0.60;;;;;;;;;;5013447;28;20270;-63
2023/02/25 02:23:38;;;;;;;0.73;0.30;;;;;;;;;;5013709;28;20166;-63
2023/02/25 02:26:13;;;;;;;0.73;0.32;;;;;;;;;;5013666;28;20252;-62
2023/02/25 02:28:57;;;;;;;1.17;0.40;;;;;;;;;;5013455;28;20180;-62
2023/02/25 02:31:23;;;;;;;0.38;0.30;;;;;;;;;;5013645;28;20178;-61
2023/02/25 02:34:07;;;;;;;0.70;0.50;;;;;;;;;;5013944;28;20166;-61
2023/02/25 02:36:39;;;;;;;1.77;0.70;;;;;;;;;;5013691;28;20166;-62
2023/02/25 02:39:24;;;;;;;1.33;0.50;;;;;;;;;;5012812;28;20177;-63
2023/02/25 02:41:57;;;;;;;0.52;0.45;;;;;;;;;;5013532;28;20272;-61
2023/02/25 02:44:32;;;;;;;2.17;0.47;;;;;;;;;;5013537;28;20189;-62
2023/02/25 02:47:06;;;;;;;2.47;0.60;;;;;;;;;;5013478;28;20174;-61
2023/02/25 02:49:32;;;;;;;3.60;0.88;;;;;;;;;;5013387;28;20186;-62
2023/02/25 02:52:04;;;;;;;1.02;0.80;;;;;;;;;;5013174;28;20182;-63
2023/02/25 02:54:35;;;;;;;2.00;0.80;;;;;;;;;;5013333;28;20174;-62
2023/02/25 02:57:03;;;;;;;4.20;0.80;;;;;;;;;;5013320;28;20162;-62
2023/02/25 02:59:33;;;;;;;1.40;0.75;;;;;;;;;;5013186;28;20206;-61
2023/02/25 03:02:21;;;;;;;1.30;0.63;;;;;;;;;;5012948;28;20245;-61
2023/02/25 03:04:48;;;;;;;2.13;0.80;;;;;;;;;;5012069;28;20217;-61
2023/02/25 03:07:16;;;;;;;1.60;0.82;;;;;;;;;;5012107;28;20170;-60
2023/02/25 03:09:46;;;;;;;1.80;0.90;;;;;;;;;;5012428;28;20177;-58
2023/02/25 03:12:12;;;;;;;1.77;0.85;;;;;;;;;;5011964;28;20597;-60
2023/02/25 03:14:38;;;;;;;2.53;0.90;;;;;;;;;;5012198;28;20175;-61
2023/02/25 03:17:09;;;;;;;1.33;0.85;;;;;;;;;;5012194;28;20174;-61
2023/02/25 03:19:38;;;;;;;2.65;1.17;;;;;;;;;;5012127;28;20198;-61
2023/02/25 03:22:10;;;;;;;3.05;0.85;;;;;;;;;;5012088;28;20260;-60
2023/02/25 03:24:39;;;;;;;1.60;1.25;;;;;;;;;;5012194;28;20186;-61
2023/02/25 03:27:25;;;;;;;4.20;1.10;;;;;;;;;;5011796;28;20488;-61
2023/02/25 03:29:52;;;;;;;4.03;1.17;;;;;;;;;;5011861;28;20166;-60
2023/02/25 03:32:19;;;;;;;3.20;1.42;;;;;;;;;;5011625;28;20167;-61
2023/02/25 03:34:48;;;;;;;1.38;0.88;;;;;;;;;;5011775;28;20174;-58
2023/02/25 03:37:20;;;;;;;2.63;0.93;;;;;;;;;;5010699;28;20506;-58
2023/02/25 03:39:47;;;;;;;1.40;1.10;;;;;;;;;;5012002;28;20186;-58
2023/02/25 03:42:16;;;;;;;2.22;0.90;;;;;;;;;;5011847;28;20167;-58
2023/02/25 03:44:44;;;;;;;2.38;1.10;;;;;;;;;;5011568;28;20180;-58
2023/02/25 03:47:11;;;;;;;1.60;0.80;;;;;;;;;;5011561;28;20698;-59
2023/02/25 03:49:41;;;;;;;2.97;1.05;;;;;;;;;;5010002;28;20609;-59
2023/02/25 03:52:12;;;;;;;2.45;0.90;;;;;;;;;;5011768;28;20166;-60
2023/02/25 03:54:38;;;;;;;5.18;1.05;;;;;;;;;;5011373;28;20491;-61
2023/02/25 03:57:04;;;;;;;3.47;1.02;;;;;;;;;;5011555;28;20181;-61
2023/02/25 03:59:30;;;;;;;1.55;0.70;;;;;;;;;;5011543;28;20343;-62
2023/02/25 04:01:58;;;;;;;3.28;1.50;;;;;;;;;;5011519;28;20587;-62
2023/02/25 04:04:24;;;;;;;1.23;0.90;;;;;;;;;;4901030;28;3204577;-63
2023/02/25 04:06:51;;;;;;;1.75;0.90;;;;;;;;;;5012004;28;20169;-63
2023/02/25 04:09:17;;;;;;;2.10;0.80;;;;;;;;;;5012347;28;20257;-63
2023/02/25 04:11:43;;;;;;;1.63;1.00;;;;;;;;;;5011830;28;20579;-62
2023/02/25 04:14:09;;;;;;;2.53;0.88;;;;;;;;;;5012248;28;20206;-63
2023/02/25 04:16:35;;;;;;;3.88;1.33;;;;;;;;;;5012470;28;20163;-64
2023/02/25 04:19:01;;;;;;;2.50;0.95;;;;;;;;;;5012147;28;20231;-63
2023/02/25 04:21:32;;;;;;;2.33;1.05;;;;;;;;;;5011839;28;20479;-64
2023/02/25 04:23:58;;;;;;;2.85;0.90;;;;;;;;;;5014280;28;20227;-64
2023/02/25 04:26:24;;;;;;;1.15;0.68;;;;;;;;;;5034162;28;20218;-63
2023/02/25 04:28:50;;;;;;;2.90;0.85;;;;;;;;;;5032945;28;20178;-64
2023/02/25 04:31:16;;;;;;;1.80;0.90;;;;;;;;;;5031176;28;20154;-64
2023/02/25 04:33:43;;;;;;;2.72;1.10;;;;;;;;;;5026147;28;20185;-64
2023/02/25 04:36:21;;;;;;;2.00;0.90;;;;;;;;;;5023767;28;20171;-64
2023/02/25 04:38:47;;;;;;;1.27;0.82;;;;;;;;;;5022002;28;20547;-64
2023/02/25 04:41:13;;;;;;;1.38;0.75;;;;;;;;;;5021263;28;20194;-65
2023/02/25 04:43:39;;;;;;;0.75;0.75;;;;;;;;;;5014069;28;20193;-64
2023/02/25 04:46:05;;;;;;;2.75;1.08;;;;;;;;;;5013744;28;20227;-64
2023/02/25 04:48:31;;;;;;;2.22;0.95;;;;;;;;;;5013354;28;20166;-65
2023/02/25 04:51:01;;;;;;;1.00;0.70;;;;;;;;;;5013985;28;20666;-65
2023/02/25 04:53:27;;;;;;;2.78;1.25;;;;;;;;;;5013168;28;20181;-65
2023/02/25 04:55:53;;;;;;;3.20;1.02;;;;;;;;;;5013261;28;20253;-64
2023/02/25 04:58:18;;;;;;;1.60;0.90;;;;;;;;;;5013341;28;20259;-66
2023/02/25 05:00:46;;;;;;;1.65;0.80;;;;;;;;;;5013760;28;20202;-63
2023/02/25 05:03:12;;;;;;;2.97;1.00;;;;;;;;;;5015637;28;20249;-64
2023/02/25 05:05:38;;;;;;;2.67;1.88;;;;;;;;;;5015131;28;20537;-63
2023/02/25 05:08:04;;;;;;;3.40;1.13;;;;;;;;;;5014903;28;20151;-64
2023/02/25 05:10:30;;;;;;;1.67;1.02;;;;;;;;;;5015166;28;20170;-64
2023/02/25 05:12:56;;;;;;;2.63;1.10;;;;;;;;;;5015202;28;20590;-64
2023/02/25 05:15:22;;;;;;;3.17;1.52;;;;;;;;;;5014958;28;20231;-63
2023/02/25 05:17:48;;;;;;;1.52;0.98;;;;;;;;;;5014780;28;20186;-63
2023/02/25 05:20:14;;;;;;;3.00;1.10;;;;;;;;;;5014786;28;20194;-63
2023/02/25 05:22:41;;;;;;;1.77;1.35;;;;;;;;;;5014769;28;20182;-63
2023/02/25 05:25:09;;;;;;;1.77;0.85;;;;;;;;;;5014728;28;20165;-64
2023/02/25 05:27:35;;;;;;;1.58;0.90;;;;;;;;;;5014339;28;20616;-64
2023/02/25 05:30:01;;;;;;;3.08;0.82;;;;;;;;;;5014630;28;20174;-64
2023/02/25 05:32:27;;;;;;;2.78;0.90;;;;;;;;;;5013943;28;20174;-64
2023/02/25 05:34:53;;;;;;;4.00;1.23;;;;;;;;;;5014240;28;20171;-64
2023/02/25 05:37:19;;;;;;;2.25;1.38;;;;;;;;;;5014195;28;20166;-64
2023/02/25 05:39:45;;;;;;;2.97;1.05;;;;;;;;;;5014463;28;20195;-65
2023/02/25 05:42:11;;;;;;;3.33;0.90;;;;;;;;;;5014646;28;20197;-64
2023/02/25 05:44:37;;;;;;;2.25;1.00;;;;;;;;;;5014387;28;20270;-64
2023/02/25 05:47:03;;;;;;;4.32;1.10;;;;;;;;;;5015882;28;20598;-64
2023/02/25 05:49:28;;;;;;;2.40;1.05;;;;;;;;;;5014329;28;20175;-64
2023/02/25 05:51:54;;;;;;;1.42;0.90;;;;;;;;;;5014189;28;20312;-64
2023/02/25 05:54:21;;;;;;;2.83;1.00;;;;;;;;;;5014103;28;20175;-63
2023/02/25 05:56:49;;;;;;;2.13;0.77;;;;;;;;;;5014211;28;20582;-64
2023/02/25 05:59:16;;;;;;;1.35;0.88;;;;;;;;;;5014169;28;20178;-64
2023/02/25 06:01:42;;;;;;;2.00;0.75;;;;;;;;;;5014136;28;20176;-64
2023/02/25 06:04:08;;;;;;;0.90;0.50;;;;;;;;;;5014379;28;20194;-62
2023/02/25 06:06:34;;;;;;;1.98;1.00;;;;;;;;;;5014185;28;20231;-64
2023/02/25 06:09:04;;;;;;;2.17;0.80;;;;;;;;;;5013986;28;20174;-64
2023/02/25 06:11:32;;;;;;;3.50;0.80;;;;;;;;;;5014262;28;20170;-64
2023/02/25 06:13:58;;;;;;;1.27;0.80;;;;;;;;;;5012922;28;20175;-64
2023/02/25 06:16:30;;;;;;;1.45;0.60;;;;;;;;;;5013766;28;20621;-64
2023/02/25 06:18:56;;;;;;;1.52;1.30;;;;;;;;;;5013619;28;20578;-65
2023/02/25 06:21:22;;;;;;;2.00;0.93;;;;;;;;;;5013822;28;20233;-64
2023/02/25 06:23:51;;;;;;;2.45;0.80;;;;;;;;;;5013764;28;20182;-63
2023/02/25 06:26:17;;;;;;;1.17;0.60;;;;;;;;;;5013931;28;20158;-63
2023/02/25 06:28:44;;;;;;;2.53;0.95;;;;;;;;;;5013336;28;20555;-64
2023/02/25 06:31:10;;;;;;;1.00;0.70;;;;;;;;;;5013899;28;20269;-64
2023/02/25 06:33:38;;;;;;;1.90;0.85;;;;;;;;;;5013709;28;20238;-63
2023/02/25 06:36:04;;;;;;;2.28;1.10;;;;;;;;;;5013438;28;20170;-64
2023/02/25 06:38:31;;;;;;;5.07;1.10;;;;;;;;;;5013619;28;20175;-63
2023/02/25 06:40:57;;;;;;;1.52;0.52;;;;;;;;;;5013538;28;20205;-64
2023/02/25 06:43:23;;;;;;;1.05;0.60;;;;;;;;;;5013508;28;20167;-64
2023/02/25 06:45:49;;;;;;;2.53;0.70;;;;;;;;;;5013476;28;20605;-63
2023/02/25 06:48:15;;;;;;;4.00;0.73;;;;;;;;;;5013514;28;20307;-63
2023/02/25 06:50:41;;;;;;;3.47;0.80;;;;;;;;;;5013089;28;20174;-63
2023/02/25 06:53:08;;;;;;;4.80;0.98;;;;;;;;;;5012352;28;20554;-64
2023/02/25 06:55:34;;;;;;;2.65;0.80;;;;;;;;;;5013279;28;20166;-64
2023/02/25 06:58:00;;;;;;;4.95;0.88;;;;;;;;;;5013487;28;20235;-63
2023/02/25 07:00:26;;;;;;;2.10;0.73;;;;;;;;;;5013700;28;20641;-64
2023/02/25 07:02:52;;;;;;;3.63;0.95;;;;;;;;;;5013330;28;20491;-64
2023/02/25 07:05:18;;;;;;;1.55;0.70;;;;;;;;;;5012960;28;20174;-63
2023/02/25 07:07:44;;;;;;;2.03;1.05;;;;;;;;;;5013279;28;20166;-63
2023/02/25 07:10:10;;;;;;;1.00;0.57;;;;;;;;;;5013082;28;20175;-63
2023/02/25 07:12:37;;;;;;;1.77;0.80;;;;;;;;;;5013682;28;20725;-62
2023/02/25 07:15:04;;;;;;;3.28;0.98;;;;;;;;;;5012778;28;20174;-63
2023/02/25 07:17:30;;;;;;;2.67;0.90;;;;;;;;;;5012981;28;20201;-63
2023/02/25 07:19:56;;;;;;;1.10;0.70;;;;;;;;;;5012541;28;20654;-62
2023/02/25 07:22:22;;;;;;;4.97;0.90;;;;;;;;;;5012828;28;20179;-62
2023/02/25 07:24:48;;;;;;;2.53;0.75;;;;;;;;;;5012513;28;20173;-63
2023/02/25 07:27:14;;;;;;;1.75;0.57;;;;;;;;;;5012864;28;20166;-63
2023/02/25 07:29:40;;;;;;;2.47;0.60;;;;;;;;;;5012566;28;20181;-64
2023/02/25 07:32:07;;;;;;;2.97;0.70;;;;;;;;;;5012946;28;20178;-63
2023/02/25 07:34:34;;;;;;;1.55;0.80;;;;;;;;;;5013387;28;20185;-62
2023/02/25 07:37:01;;;;;;;1.48;0.80;;;;;;;;;;5012789;28;20632;-62
2023/02/25 07:39:27;;;;;;;3.28;0.95;;;;;;;;;;5012836;28;20208;-63
2023/02/25 07:41:53;;;;;;;1.58;0.73;;;;;;;;;;5012627;28;20265;-61
2023/02/25 07:44:19;;;;;;;2.22;0.77;;;;;;;;;;5012692;28;20174;-62
2023/02/25 07:46:45;;;;;;;1.80;0.80;;;;;;;;;;5012563;28;20620;-58
2023/02/25 07:49:11;;;;;;;1.92;0.77;;;;;;;;;;5012685;28;20171;-62
2023/02/25 07:51:37;;;;;;;2.60;0.70;;;;;;;;;;5012593;28;20589;-60
2023/02/25 07:54:03;;;;;;;2.72;0.68;;;;;;;;;;5012474;28;20597;-61
2023/02/25 07:56:30;;;;;;;1.45;0.50;;;;;;;;;;5012723;28;20490;-60
2023/02/25 07:58:55;;;;;;;1.73;0.68;;;;;;;;;;5013048;28;20169;-61
2023/02/25 08:01:23;;;;;;;3.30;0.77;;;;;;;;;;5012517;28;20581;-63
2023/02/25 08:03:54;;;;;;;1.75;0.50;;;;;;;;;;5012277;28;20197;-63
2023/02/25 08:06:21;;;;;;;1.40;0.70;;;;;;;;;;5012366;28;20287;-62
2023/02/25 08:08:49;;;;;;;2.28;0.55;;;;;;;;;;5012663;28;20170;-61
2023/02/25 08:11:16;;;;;;;1.83;0.60;;;;;;;;;;5012678;28;20170;-63
2023/02/25 08:13:42;;;;;;;1.60;0.70;;;;;;;;;;5012207;28;20181;-61
2023/02/25 08:16:08;;;;;;;1.58;0.90;;;;;;;;;;5012143;28;20162;-63
2023/02/25 08:18:35;;;;;;;1.02;0.70;;;;;;;;;;5012183;28;20170;-62
2023/02/25 08:21:01;;;;;;;1.17;0.60;;;;;;;;;;5011869;28;20557;-62
2023/02/25 08:23:27;;;;;;;2.17;0.60;;;;;;;;;;5012260;28;20166;-63
2023/02/25 08:25:56;;;;;;;1.63;0.60;;;;;;;;;;5012174;28;20501;-63
2023/02/25 08:28:22;;;;;;;0.90;0.60;;;;;;;;;;5012198;28;20167;-63
2023/02/25 08:30:49;;;;;;;0.60;0.47;;;;;;;;;;5012022;28;20171;-62
2023/02/25 08:33:15;;;;;;;0.95;0.70;;;;;;;;;;5016295;28;20166;-62
2023/02/25 08:35:41;;;;;;;0.68;0.68;;;;;;;;;;5016751;28;20170;-61
2023/02/25 08:38:08;;;;;;;1.58;0.90;;;;;;;;;;5018325;28;20181;-62
2023/02/25 08:40:34;;;;;;;1.48;0.68;;;;;;;;;;5017765;28;20213;-62
2023/02/25 08:43:00;;;;;;;1.73;0.45;;;;;;;;;;5022730;28;20485;-62
2023/02/25 08:45:27;;;;;;;1.55;0.60;;;;;;;;;;5029307;28;20166;-63
2023/02/25 08:47:53;;;;;;;0.47;0.40;;;;;;;;;;5029790;28;20170;-62
2023/02/25 08:50:19;;;;;;;0.90;0.47;;;;;;;;;;5026183;28;20495;-64
2023/02/25 08:52:45;;;;;;;1.60;0.40;;;;;;;;;;5028129;28;20174;-64
2023/02/25 08:55:13;;;;;;;0.47;0.30;;;;;;;;;;5027975;28;20257;-64
2023/02/25 08:57:40;;;;;;;2.38;0.45;;;;;;;;;;5027876;28;20205;-64
2023/02/25 09:00:08;;;;;;;0.45;0.43;;;;;;;;;;5024051;28;20541;-64
2023/02/25 09:02:34;;;;;;;1.42;0.52;;;;;;;;;;5023408;28;20201;-64
2023/02/25 09:05:00;;;;;;;0.63;0.40;;;;;;;;;;5019420;28;20206;-63
2023/02/25 09:07:26;;;;;;;0.93;0.45;;;;;;;;;;5016053;28;20166;-62
2023/02/25 09:09:52;;;;;;;0.60;0.52;;;;;;;;;;5015375;28;20198;-63
2023/02/25 09:12:18;;;;;;;1.75;0.60;;;;;;;;;;5015152;28;20201;-62
2023/02/25 09:14:44;;;;;;;1.40;0.70;;;;;;;;;;5015826;28;20170;-61
2023/02/25 09:17:10;;;;;;;2.28;0.60;;;;;;;;;;5015478;28;20181;-62
2023/02/25 09:19:39;;;;;;;2.40;0.43;;;;;;;;;;5015094;28;20251;-63
2023/02/25 09:22:06;;;;;;;1.60;0.52;;;;;;;;;;5014977;28;20162;-62
2023/02/25 09:24:33;;;;;;;0.30;0.30;;;;;;;;;;5015162;28;20488;-63
2023/02/25 09:27:00;;;;;;;2.38;0.20;;;;;;;;;;5014196;28;20213;-62
2023/02/25 09:29:26;;;;;;;0.95;0.43;;;;;;;;;;5014888;28;20170;-63
2023/02/25 09:31:53;;;;;;;0.52;0.30;;;;;;;;;;5014780;28;20213;-62
2023/02/25 09:34:19;;;;;;;0.95;0.43;;;;;;;;;;5015005;28;20198;-64
2023/02/25 09:36:45;;;;;;;0.57;0.35;;;;;;;;;;5014983;28;20179;-64
2023/02/25 09:39:12;;;;;;;1.27;0.50;;;;;;;;;;5014653;28;20170;-64
2023/02/25 09:41:44;;;;;;;1.20;0.40;;;;;;;;;;5014713;28;20170;-64
2023/02/25 09:44:13;;;;;;;1.38;0.50;;;;;;;;;;5014558;28;20589;-63
2023/02/25 09:46:45;;;;;;;0.95;0.70;;;;;;;;;;5014227;28;20163;-62
2023/02/25 09:49:15;;;;;;;0.75;0.40;;;;;;;;;;5014835;28;20158;-64
2023/02/25 09:51:46;;;;;;;1.45;0.30;;;;;;;;;;5014416;28;20509;-61
2023/02/25 09:54:29;;;;;;;1.17;0.50;;;;;;;;;;5014395;28;20170;-62
2023/02/25 09:56:55;;;;;;;1.55;0.57;;;;;;;;;;5014644;28;20162;-64
2023/02/25 09:59:21;;;;;;;3.13;0.68;;;;;;;;;;5014343;28;20497;-64
2023/02/25 10:01:56;;;;;;;1.10;0.50;;;;;;;;;;5014311;28;20203;-64
2023/02/25 10:04:26;;;;;;;4.80;0.60;;;;;;;;;;5014060;28;20526;-64
2023/02/25 10:06:54;;;;;;;2.20;0.63;;;;;;;;;;5013817;28;20166;-65
2023/02/25 10:09:44;;;;;;;3.00;0.65;;;;;;;;;;5014237;28;20529;-62
2023/02/25 10:12:19;;;;;;;0.75;0.40;;;;;;;;;;5014192;28;20159;-62
2023/02/25 10:14:52;;;;;;;1.52;0.30;;;;;;;;;;5013907;28;20608;-62
2023/02/25 10:17:18;;;;;;;1.98;0.73;;;;;;;;;;5013757;28;20174;-64
2023/02/25 10:19:44;;;;;;;0.68;0.50;;;;;;;;;;5013787;28;20270;-64
2023/02/25 10:22:13;;;;;;;3.00;0.90;;;;;;;;;;5013923;28;20544;-65
2023/02/25 10:24:43;;;;;;;1.15;0.70;;;;;;;;;;5015774;28;20181;-63
2023/02/25 10:27:10;;;;;;;5.65;0.90;;;;;;;;;;5014178;28;20185;-63
2023/02/25 10:29:45;;;;;;;3.30;0.55;;;;;;;;;;5014433;28;20178;-63
2023/02/25 10:32:24;;;;;;;4.32;0.63;;;;;;;;;;5013944;28;20503;-63
2023/02/25 10:34:52;;;;;;;1.98;0.55;;;;;;;;;;5013886;28;20231;-63
2023/02/25 10:37:21;;;;;;;0.70;0.45;;;;;;;;;;5013509;28;20212;-63
2023/02/25 10:39:47;;;;;;;6.18;0.60;;;;;;;;;;5013930;28;20194;-63
2023/02/25 10:42:14;;;;;;;1.65;0.30;;;;;;;;;;5013846;28;20252;-63
2023/02/25 10:44:43;;;;;;;0.77;0.52;;;;;;;;;;5013467;28;20193;-63
2023/02/25 10:47:11;;;;;;;1.63;0.60;;;;;;;;;;5013660;28;20286;-62
2023/02/25 10:49:37;;;;;;;1.25;0.52;;;;;;;;;;5013681;28;20551;-62
2023/02/25 10:52:18;;;;;;;1.45;0.60;;;;;;;;;;5013757;28;20174;-63
2023/02/25 10:54:46;;;;;;;1.65;0.75;;;;;;;;;;5014218;28;20257;-60
2023/02/25 10:57:16;;;;;;;1.05;0.40;;;;;;;;;;5013593;28;20174;-60
2023/02/25 10:59:44;;;;;;;2.70;0.50;;;;;;;;;;5012608;28;20689;-60
2023/02/25 11:02:20;;;;;;;2.33;0.65;;;;;;;;;;5013252;28;20170;-60
2023/02/25 11:04:47;;;;;;;0.40;0.40;;;;;;;;;;5013300;28;20523;-61
2023/02/25 11:07:42;;;;;;;0.57;0.20;;;;;;;;;;5013376;28;20257;-61
2023/02/25 11:10:11;;;;;;;0.88;0.50;;;;;;;;;;5008601;28;20183;-61
2023/02/25 11:12:45;;;;;;;1.63;0.60;;;;;;;;;;5013245;28;20574;-61
2023/02/25 11:15:18;;;;;;;1.25;0.40;;;;;;;;;;5013600;28;20227;-61
2023/02/25 11:17:44;;;;;;;3.35;1.30;;;;;;;;;;5012995;28;20653;-61
2023/02/25 11:20:20;;;;;;;0.77;0.55;;;;;;;;;;5013196;28;20194;-60
2023/02/25 11:22:52;;;;;;;2.00;0.43;;;;;;;;;;5012903;28;20675;-60
2023/02/25 11:25:23;;;;;;;0.55;0.40;;;;;;;;;;5013000;28;20170;-61
2023/02/25 11:27:57;;;;;;;0.70;0.50;;;;;;;;;;5013005;28;20614;-62
2023/02/25 11:30:49;;;;;;;0.45;0.22;;;;;;;;;;5013190;28;20166;-62
2023/02/25 11:33:23;;;;;;;0.73;0.50;;;;;;;;;;5012072;28;20174;-62
2023/02/25 11:35:54;;;;;;;1.17;0.50;;;;;;;;;;5013140;28;20573;-62
2023/02/25 11:38:26;;;;;;;1.90;0.38;;;;;;;;;;5013151;28;20189;-62
2023/02/25 11:40:52;;;;;;;1.40;0.30;;;;;;;;;;5013601;28;20517;-62
2023/02/25 11:43:20;;;;;;;1.45;0.50;;;;;;;;;;5012634;28;20651;-63
2023/02/25 11:45:56;;;;;;;1.95;0.60;;;;;;;;;;5013058;28;20177;-63
2023/02/25 11:48:41;;;;;;;1.67;0.40;;;;;;;;;;5012737;28;20173;-64
2023/02/25 11:51:13;;;;;;;0.57;0.25;;;;;;;;;;5012844;28;20159;-64
2023/02/25 11:53:47;;;;;;;1.52;0.40;;;;;;;;;;5012539;28;20189;-63
2023/02/25 11:56:32;;;;;;;1.17;0.30;;;;;;;;;;5012774;28;20469;-62
2023/02/25 11:59:17;;;;;;;0.52;0.30;;;;;;;;;;5012543;28;20178;-62
2023/02/25 12:01:46;;;;;;;0.38;0.35;;;;;;;;;;5012490;28;20233;-62
2023/02/25 12:04:30;;;;;;;2.50;0.70;;;;;;;;;;5011909;28;20193;-61
2023/02/25 12:06:59;;;;;;;0.70;0.40;;;;;;;;;;5012316;28;20231;-63
2023/02/25 12:09:40;;;;;;;0.70;0.47;;;;;;;;;;5012511;28;20167;-63
2023/02/25 12:12:20;;;;;;;1.02;0.50;;;;;;;;;;5014988;28;20195;-63
2023/02/25 12:15:05;;;;;;;3.03;0.40;;;;;;;;;;5014972;28;20176;-62
2023/02/25 12:17:46;;;;;;;0.95;0.40;;;;;;;;;;5015628;28;20166;-62
2023/02/25 12:20:13;;;;;;;1.90;0.47;;;;;;;;;;5015902;28;20201;-61
2023/02/25 12:22:57;;;;;;;0.45;0.35;;;;;;;;;;5016096;28;20182;-62
2023/02/25 12:25:40;;;;;;;0.77;0.38;;;;;;;;;;5016229;28;20237;-61
2023/02/25 12:28:19;;;;;;;0.98;0.50;;;;;;;;;;5015898;28;20215;-63
2023/02/25 12:30:54;;;;;;;2.70;0.60;;;;;;;;;;5025499;28;20242;-63
2023/02/25 12:33:25;;;;;;;1.38;0.40;;;;;;;;;;5025842;28;20174;-63
2023/02/25 12:36:09;;;;;;;1.92;0.50;;;;;;;;;;5021365;28;20615;-63
2023/02/25 12:38:35;;;;;;;0.88;0.60;;;;;;;;;;5017041;28;20243;-63
2023/02/25 12:41:13;;;;;;;2.35;0.60;;;;;;;;;;5018075;28;20589;-63
2023/02/25 12:43:49;;;;;;;2.08;0.40;;;;;;;;;;5017874;28;20177;-63
2023/02/25 12:46:27;;;;;;;0.60;0.50;;;;;;;;;;5016513;28;20241;-63
2023/02/25 12:49:13;;;;;;;1.52;0.70;;;;;;;;;;5015492;28;20162;-62
2023/02/25 12:51:59;;;;;;;2.38;0.60;;;;;;;;;;5022212;28;20237;-63
2023/02/25 12:54:43;;;;;;;2.15;0.52;;;;;;;;;;5036251;28;20151;-63
2023/02/25 12:57:16;;;;;;;5.53;0.85;;;;;;;;;;5030461;28;20205;-62
2023/02/25 13:00:07;;;;;;;2.53;0.60;;;;;;;;;;5032368;28;20202;-63
2023/02/25 13:02:51;;;;;;;2.47;0.50;;;;;;;;;;5021689;28;20178;-63
2023/02/25 13:05:17;;;;;;;1.52;0.47;;;;;;;;;;5026169;28;20609;-65
2023/02/25 13:07:51;;;;;;;1.35;0.30;;;;;;;;;;5023429;28;20181;-62
2023/02/25 13:10:29;;;;;;;1.00;0.30;;;;;;;;;;5016295;28;20236;-61
2023/02/25 13:13:19;;;;;;;1.65;0.47;;;;;;;;;;5015645;28;20496;-63
2023/02/25 13:16:00;;;;;;;0.70;0.40;;;;;;;;;;5014268;28;20206;-64
2023/02/25 13:18:52;;;;;;;1.65;0.40;;;;;;;;;;5017457;28;20186;-64
2023/02/25 13:21:32;;;;;;;1.25;0.50;;;;;;;;;;5005889;28;20218;-63
2023/02/25 13:24:07;;;;;;;1.30;0.40;;;;;;;;;;5014647;28;20478;-60
2023/02/25 13:26:36;;;;;;;0.32;0.32;;;;;;;;;;5014452;28;20230;-64
2023/02/25 13:29:11;;;;;;;0.60;0.55;;;;;;;;;;5014823;28;20212;-62
2023/02/25 13:31:57;;;;;;;1.00;0.50;;;;;;;;;;5014516;28;20170;-63
2023/02/25 13:34:24;;;;;;;3.13;0.65;;;;;;;;;;5010351;28;20515;-63
2023/02/25 13:37:08;;;;;;;2.22;0.65;;;;;;;;;;5014518;28;20170;-61
2023/02/25 13:39:40;;;;;;;1.40;0.50;;;;;;;;;;5014224;28;20526;-62
2023/02/25 13:42:25;;;;;;;0.80;0.40;;;;;;;;;;5014158;28;20204;-63
2023/02/25 13:45:10;;;;;;;2.28;0.68;;;;;;;;;;5012723;28;20261;-62
2023/02/25 13:47:55;;;;;;;3.85;0.65;;;;;;;;;;5014489;28;20507;-60
2023/02/25 13:50:31;;;;;;;1.55;0.55;;;;;;;;;;5014035;28;20235;-64
2023/02/25 13:53:00;;;;;;;2.13;0.70;;;;;;;;;;5014605;28;20488;-64
2023/02/25 13:55:45;;;;;;;3.92;1.00;;;;;;;;;;5014375;28;20231;-62
2023/02/25 13:58:35;;;;;;;1.17;0.70;;;;;;;;;;5014064;28;20176;-60
2023/02/25 14:01:12;;;;;;;3.55;1.83;;;;;;;;;;5014161;28;20580;-60
2023/02/25 14:03:53;;;;;;;1.75;0.60;;;;;;;;;;5013990;28;20261;-61
2023/02/25 14:06:34;;;;;;;4.03;0.88;;;;;;;;;;5014414;28;20157;-62
2023/02/25 14:09:21;;;;;;;3.45;1.10;;;;;;;;;;5014424;28;20166;-62
2023/02/25 14:11:53;;;;;;;2.13;0.77;;;;;;;;;;5014384;28;20154;-62
2023/02/25 14:14:27;;;;;;;1.35;0.75;;;;;;;;;;5014272;28;20292;-62
2023/02/25 14:16:59;;;;;;;3.72;1.38;;;;;;;;;;5018811;28;20190;-61
2023/02/25 14:19:28;;;;;;;1.63;0.52;;;;;;;;;;5013911;28;20593;-62
2023/02/25 14:21:54;;;;;;;1.90;0.60;;;;;;;;;;5014084;28;20262;-63
2023/02/25 14:24:27;;;;;;;0.70;0.45;;;;;;;;;;5013760;28;20525;-63
2023/02/25 14:27:08;;;;;;;2.83;0.50;;;;;;;;;;5014403;28;20163;-63
2023/02/25 14:29:55;;;;;;;1.23;0.50;;;;;;;;;;5013821;28;20169;-63
2023/02/25 14:32:28;;;;;;;1.30;0.35;;;;;;;;;;5014048;28;20450;-62
2023/02/25 14:34:58;;;;;;;1.38;0.32;;;;;;;;;;5012831;28;20155;-63
2023/02/25 14:37:43;;;;;;;0.32;0.32;;;;;;;;;;5014604;28;20182;-62
2023/02/25 14:40:22;;;;;;;2.67;0.40;;;;;;;;;;5013988;28;20289;-62
2023/02/25 14:43:06;;;;;;;0.70;0.40;;;;;;;;;;5013688;28;20158;-62
2023/02/25 14:45:34;;;;;;;1.23;0.50;;;;;;;;;;5013850;28;20162;-63
2023/02/25 14:48:05;;;;;;;1.70;0.38;;;;;;;;;;5014119;28;20181;-63
2023/02/25 14:50:31;;;;;;;0.75;0.40;;;;;;;;;;5013648;28;20186;-64
2023/02/25 14:53:06;;;;;;;2.20;0.60;;;;;;;;;;5015966;28;20502;-63
2023/02/25 14:55:32;;;;;;;4.13;0.60;;;;;;;;;;5015546;28;20184;-63
2023/02/25 14:58:12;;;;;;;0.55;0.35;;;;;;;;;;5015968;28;20166;-63
2023/02/25 15:00:38;;;;;;;0.50;0.30;;;;;;;;;;5015671;28;20190;-63